Redfield, Kansas
Current Conditions -  °F | °C
As of 5:55 PM on Wednesday 22 Oct 2014 (Local Time) from KPTS Reporting Station
Clear Clear  
Wind Chill: 73°   Ceiling: Unl
Heat Index: 73°   Visibility: 10mi
Dew Point: 61°   Wind: 6mph
Humidity: 65%   Direction: 150°SSE
Pressure: 30.1"   Gusts: NA
Location:  37.84°N, 94.88°W
Report Text: KPTS 222255Z AUTO 15005KT 10SM CLR 23/16 A3010 RMK AO2 T02300161
Loading
Personal Weather Stations






























Interactive Weather Map
Tropical Storm Tracking
New forecast layout! Learn more

10-Day Weather Forecast

Advertisements
Track Severe Weather on mobile